Blanchard, Michigan
Current Conditions -  °F | °C
As of 3:15 PM on Sunday 23 Nov 2014 (Local Time) from KMOP Reporting Station
Overcast Overcast  
Wind Chill: 50°   Ceiling: 3700
Heat Index: 50°   Visibility: 10mi
Dew Point: 47°   Wind: 8mph
Humidity: 90%   Direction: 150°SSE
Pressure: 29.64"   Gusts: NA
Location:  43.52°N, 85.08°W
Report Text: KMOP 232015Z AUTO 15007KT 10SM SCT014 BKN037 OVC090 10/09 A2964 RMK AO2 T01000085
Loading
Personal Weather Stations






























Interactive Weather Map New forecast layout! Learn more

10-Day Weather Forecast

Advertisements
Track Severe Weather on mobile